createdAt,value
2022-11-20T00:01:06.005Z,79.30
2022-11-20T00:02:28.525Z,79.50
2022-11-20T00:03:52.376Z,79.40
2022-11-20T00:05:20.014Z,79.90
2022-11-20T00:06:40.572Z,80.00
2022-11-20T00:08:02.771Z,79.80
2022-11-20T00:09:24.634Z,80.20
2022-11-20T00:10:47.199Z,80.30
2022-11-20T00:12:07.688Z,79.80
2022-11-20T00:13:34.039Z,79.50
2022-11-20T00:14:55.224Z,79.20
2022-11-20T00:16:17.295Z,79.30
2022-11-20T00:17:37.765Z,79.80
2022-11-20T00:19:05.164Z,80.10
2022-11-20T00:20:26.831Z,80.30
2022-11-20T00:21:47.595Z,80.20
2022-11-20T00:23:13.814Z,80.70
2022-11-20T00:24:38.945Z,80.50
2022-11-20T00:26:08.744Z,80.30
2022-11-20T00:27:31.902Z,80.00
2022-11-20T00:28:54.078Z,79.90
2022-11-20T00:30:15.380Z,80.60
2022-11-20T00:31:39.586Z,80.80
2022-11-20T00:33:01.405Z,80.30
2022-11-20T00:34:28.551Z,80.10
2022-11-20T00:35:49.236Z,79.80
2022-11-20T00:37:11.765Z,79.90
2022-11-20T00:38:32.582Z,79.90
2022-11-20T00:39:53.362Z,80.00
2022-11-20T00:41:17.919Z,80.00
2022-11-20T00:42:39.302Z,79.80
2022-11-20T00:44:05.661Z,80.10
2022-11-20T00:45:32.708Z,80.30
2022-11-20T00:47:03.446Z,80.00
2022-11-20T00:48:28.204Z,80.60
2022-11-20T00:49:51.194Z,80.10
2022-11-20T00:51:13.067Z,79.90
2022-11-20T00:52:34.204Z,79.70
2022-11-20T00:54:00.388Z,79.50
2022-11-20T00:55:28.223Z,79.30
2022-11-20T00:56:55.041Z,79.30
2022-11-20T00:58:20.663Z,79.60
2022-11-20T00:59:42.967Z,79.80
2022-11-20T01:01:06.898Z,79.30
2022-11-20T01:02:29.770Z,78.70
2022-11-20T01:03:52.977Z,78.60
2022-11-20T01:05:15.874Z,78.90
2022-11-20T01:06:40.471Z,78.60
2022-11-20T01:08:01.120Z,78.60
2022-11-20T01:09:24.977Z,78.40
2022-11-20T01:10:46.020Z,78.20
2022-11-20T01:12:14.574Z,78.40
2022-11-20T01:13:36.697Z,78.80
2022-11-20T01:14:59.505Z,79.00
2022-11-20T01:16:25.354Z,78.60
2022-11-20T01:17:46.626Z,78.30
2022-11-20T01:19:09.974Z,78.20
2022-11-20T01:20:36.721Z,78.50
2022-11-20T01:22:00.291Z,78.90
2022-11-20T01:23:21.058Z,78.90
2022-11-20T01:24:47.781Z,78.90
2022-11-20T01:26:12.872Z,79.20
2022-11-20T01:27:34.183Z,79.50
2022-11-20T01:29:03.266Z,79.60
2022-11-20T01:30:24.874Z,79.50
2022-11-20T01:31:45.535Z,79.50
2022-11-20T01:33:06.043Z,79.40
2022-11-20T01:34:34.789Z,79.70
2022-11-20T01:36:05.922Z,79.30
2022-11-20T01:37:33.105Z,77.80
2022-11-20T01:38:57.812Z,76.90
2022-11-20T01:40:18.628Z,76.40
2022-11-20T01:41:39.760Z,76.70
2022-11-20T01:43:16.114Z,76.80
2022-11-20T01:44:55.399Z,77.60
2022-11-20T01:46:18.164Z,78.00
2022-11-20T01:47:42.160Z,78.10
2022-11-20T01:49:04.698Z,78.00
2022-11-20T01:50:31.830Z,78.50
2022-11-20T01:52:00.370Z,78.90
2022-11-20T01:53:27.672Z,78.70
2022-11-20T01:54:50.558Z,78.80
2022-11-20T01:56:13.227Z,79.20
2022-11-20T01:57:38.858Z,79.20
2022-11-20T01:59:01.299Z,79.80
2022-11-20T02:00:22.692Z,79.90
2022-11-20T02:01:43.024Z,79.80
2022-11-20T02:03:07.465Z,79.70
2022-11-20T02:04:32.609Z,79.40
2022-11-20T02:05:57.904Z,79.40
2022-11-20T02:07:20.788Z,79.00
2022-11-20T02:08:43.058Z,78.90
2022-11-20T02:10:06.509Z,78.70
2022-11-20T02:11:28.631Z,79.00
2022-11-20T02:12:50.558Z,79.30
2022-11-20T02:14:11.506Z,79.30
2022-11-20T02:15:34.326Z,79.60
2022-11-20T02:16:58.059Z,79.70
2022-11-20T02:18:21.831Z,80.10
2022-11-20T02:19:42.736Z,80.30
2022-11-20T02:21:09.616Z,80.10
2022-11-20T02:22:36.494Z,80.30
2022-11-20T02:24:06.019Z,80.70
2022-11-20T02:25:35.352Z,81.10
2022-11-20T02:27:00.205Z,81.10
2022-11-20T02:28:21.820Z,81.40
2022-11-20T02:29:45.952Z,81.20
2022-11-20T02:31:06.584Z,80.70
2022-11-20T02:32:34.489Z,80.40
2022-11-20T02:33:58.901Z,80.70
2022-11-20T02:35:45.753Z,80.70
2022-11-20T02:37:07.039Z,80.60
2022-11-20T02:38:30.480Z,80.60
2022-11-20T02:39:52.724Z,80.70
2022-11-20T02:41:13.082Z,80.50
2022-11-20T02:42:33.720Z,80.40
2022-11-20T02:43:54.532Z,80.20
2022-11-20T02:45:15.085Z,80.20
2022-11-20T02:46:36.219Z,80.50
2022-11-20T02:47:57.148Z,80.30
2022-11-20T02:49:18.042Z,80.40
2022-11-20T02:50:39.511Z,80.10
2022-11-20T02:52:00.120Z,80.20
2022-11-20T02:53:20.485Z,80.00
2022-11-20T02:54:41.529Z,80.00
2022-11-20T02:56:03.847Z,79.90
2022-11-20T02:57:24.141Z,79.90
2022-11-20T02:58:45.750Z,80.20
2022-11-20T03:00:07.603Z,79.90
2022-11-20T03:01:28.218Z,80.00
2022-11-20T03:02:48.920Z,80.00
2022-11-20T03:04:09.436Z,80.00
2022-11-20T03:05:29.992Z,80.30
2022-11-20T03:06:50.709Z,80.80
2022-11-20T03:08:11.923Z,80.50
2022-11-20T03:09:32.522Z,80.40
2022-11-20T03:10:53.222Z,80.20
2022-11-20T03:12:15.205Z,80.20
2022-11-20T03:13:36.056Z,80.10
2022-11-20T03:14:56.748Z,80.00
2022-11-20T03:16:19.498Z,79.70
2022-11-20T03:17:39.934Z,79.90
2022-11-20T03:19:00.615Z,80.00
2022-11-20T03:20:21.141Z,80.40
2022-11-20T03:21:41.509Z,80.20
2022-11-20T03:23:03.003Z,80.70
2022-11-20T03:24:23.364Z,80.30
2022-11-20T03:25:43.848Z,81.10
2022-11-20T03:27:04.668Z,81.10
2022-11-20T03:28:26.549Z,81.50
2022-11-20T03:29:46.733Z,81.00
2022-11-20T03:31:09.286Z,80.80
2022-11-20T03:32:30.254Z,80.80
2022-11-20T03:33:51.343Z,80.70
2022-11-20T03:35:11.870Z,80.80
2022-11-20T03:36:32.890Z,81.00
2022-11-20T03:37:53.743Z,81.50
2022-11-20T03:39:14.456Z,81.80
2022-11-20T03:40:35.913Z,81.80
2022-11-20T03:41:56.340Z,81.70
2022-11-20T03:43:16.652Z,81.80
2022-11-20T03:44:38.289Z,81.60
2022-11-20T03:45:59.145Z,81.70
2022-11-20T03:47:19.837Z,81.70
2022-11-20T03:48:40.454Z,81.70
2022-11-20T03:50:00.917Z,81.40
2022-11-20T03:51:23.366Z,81.40
2022-11-20T03:52:44.031Z,81.60
2022-11-20T03:54:08.557Z,81.40
2022-11-20T03:55:29.093Z,81.80
2022-11-20T03:56:49.765Z,81.80
2022-11-20T03:58:10.588Z,82.00
2022-11-20T03:59:31.131Z,82.30
2022-11-20T04:00:53.216Z,81.70
2022-11-20T04:02:13.415Z,81.70
2022-11-20T04:03:34.142Z,81.60
2022-11-20T04:04:55.024Z,81.40
2022-11-20T04:06:17.762Z,81.70
2022-11-20T04:07:38.521Z,81.90
2022-11-20T04:08:59.665Z,81.90
2022-11-20T04:10:19.860Z,81.60
2022-11-20T04:11:41.260Z,82.30
2022-11-20T04:13:01.930Z,82.70
2022-11-20T04:14:23.031Z,83.00
2022-11-20T04:15:43.890Z,82.90
2022-11-20T04:17:06.051Z,82.80
2022-11-20T04:18:26.768Z,82.80
2022-11-20T04:19:47.728Z,82.80
2022-11-20T04:21:08.659Z,82.60
2022-11-20T04:22:30.556Z,83.00
2022-11-20T04:23:50.940Z,83.60
2022-11-20T04:25:11.281Z,83.50
2022-11-20T04:26:31.996Z,84.00
2022-11-20T04:27:53.748Z,83.90
2022-11-20T04:29:14.452Z,83.70
2022-11-20T04:30:34.875Z,83.90
2022-11-20T04:31:55.501Z,84.00
2022-11-20T04:33:18.710Z,84.40
2022-11-20T04:34:39.169Z,84.50
2022-11-20T04:36:02.431Z,84.10
2022-11-20T04:37:22.964Z,84.10
2022-11-20T04:38:43.763Z,84.20
2022-11-20T04:40:04.629Z,83.90
2022-11-20T04:41:26.749Z,83.30
2022-11-20T04:42:47.448Z,83.40
2022-11-20T04:44:07.900Z,83.50
2022-11-20T04:45:28.524Z,84.10
2022-11-20T04:46:49.214Z,83.90
2022-11-20T04:48:10.001Z,83.60
2022-11-20T04:49:31.937Z,84.10
2022-11-20T04:50:53.335Z,83.70
2022-11-20T04:52:14.309Z,83.50
2022-11-20T04:53:34.756Z,83.30
2022-11-20T04:54:55.505Z,83.10
2022-11-20T04:56:16.521Z,82.70
2022-11-20T04:57:36.989Z,83.00
2022-11-20T04:59:01.385Z,84.10
2022-11-20T05:00:22.012Z,83.90
2022-11-20T05:01:42.762Z,83.40
2022-11-20T05:03:03.718Z,83.10
2022-11-20T05:04:24.339Z,82.80
2022-11-20T05:05:46.064Z,82.90
2022-11-20T05:07:06.696Z,83.20
2022-11-20T05:08:27.379Z,83.40
2022-11-20T05:09:48.096Z,83.40
2022-11-20T05:11:10.952Z,83.10
2022-11-20T05:12:32.501Z,83.30
2022-11-20T05:13:53.512Z,83.30
2022-11-20T05:15:14.311Z,83.00
2022-11-20T05:16:35.763Z,83.30
2022-11-20T05:17:56.055Z,83.40
2022-11-20T05:19:16.673Z,83.00
2022-11-20T05:20:36.954Z,82.90
2022-11-20T05:21:58.979Z,83.20
2022-11-20T05:23:19.428Z,83.20
2022-11-20T05:24:39.980Z,82.80
2022-11-20T05:26:01.418Z,82.80
2022-11-20T05:27:21.882Z,82.70
2022-11-20T05:28:42.632Z,82.60
2022-11-20T05:30:03.778Z,82.30
2022-11-20T05:31:28.035Z,82.10
2022-11-20T05:32:49.097Z,82.30
2022-11-20T05:34:09.549Z,82.30
2022-11-20T05:35:29.929Z,82.50
2022-11-20T05:36:50.304Z,82.90
2022-11-20T05:38:12.466Z,82.80
2022-11-20T05:39:32.967Z,82.90
2022-11-20T05:40:53.653Z,83.20
2022-11-20T05:42:13.999Z,83.50
2022-11-20T05:43:34.670Z,83.60
2022-11-20T05:44:55.208Z,83.60
2022-11-20T05:46:17.328Z,83.20
2022-11-20T05:47:37.879Z,83.60
2022-11-20T05:48:59.656Z,82.80
2022-11-20T05:50:20.081Z,83.10
2022-11-20T05:51:40.294Z,83.00
2022-11-20T05:53:00.845Z,82.90
2022-11-20T05:54:22.852Z,82.80
2022-11-20T05:55:43.606Z,83.40
2022-11-20T05:57:04.329Z,83.40
2022-11-20T05:58:24.875Z,83.10
2022-11-20T05:59:45.475Z,83.10
2022-11-20T06:01:08.058Z,83.50
2022-11-20T06:02:28.729Z,83.40
2022-11-20T06:03:49.914Z,83.60
2022-11-20T06:05:10.615Z,84.10
2022-11-20T06:06:31.111Z,84.20
2022-11-20T06:07:51.741Z,84.40
2022-11-20T06:09:12.465Z,84.20
2022-11-20T06:10:34.542Z,83.60
2022-11-20T06:11:54.833Z,83.20
2022-11-20T06:13:15.129Z,83.80
2022-11-20T06:14:35.814Z,83.90
2022-11-20T06:15:56.643Z,83.90
2022-11-20T06:17:17.177Z,83.90
2022-11-20T06:18:38.331Z,84.20
2022-11-20T06:19:58.958Z,83.80
2022-11-20T06:21:21.823Z,84.00
2022-11-20T06:22:42.516Z,84.40
2022-11-20T06:24:03.352Z,84.50
2022-11-20T06:25:24.002Z,84.10
2022-11-20T06:26:46.110Z,84.30
2022-11-20T06:28:06.520Z,84.20
2022-11-20T06:29:31.410Z,84.20
2022-11-20T06:30:54.374Z,84.40
2022-11-20T06:32:15.023Z,84.40
2022-11-20T06:33:35.322Z,85.00
2022-11-20T06:34:55.641Z,85.10
2022-11-20T06:36:19.264Z,85.10
2022-11-20T06:37:40.029Z,85.30
2022-11-20T06:39:00.677Z,85.40
2022-11-20T06:40:21.284Z,85.30
2022-11-20T06:41:41.917Z,85.20
2022-11-20T06:43:03.829Z,85.30
2022-11-20T06:44:24.470Z,85.20
2022-11-20T06:45:44.839Z,85.20
2022-11-20T06:47:05.412Z,85.10
2022-11-20T06:48:27.357Z,84.90
2022-11-20T06:49:47.852Z,84.80
2022-11-20T06:51:08.823Z,85.20
2022-11-20T06:52:29.016Z,85.20
2022-11-20T06:53:50.075Z,85.60
2022-11-20T06:55:10.776Z,85.70
2022-11-20T06:56:31.489Z,85.00
2022-11-20T06:57:55.852Z,85.20
2022-11-20T06:59:17.993Z,85.50
2022-11-20T07:00:38.719Z,85.30
2022-11-20T07:01:59.743Z,85.10
2022-11-20T07:03:20.162Z,85.50
2022-11-20T07:04:40.952Z,85.60
2022-11-20T07:06:02.112Z,85.60
2022-11-20T07:07:22.540Z,86.00
2022-11-20T07:08:42.942Z,86.50
2022-11-20T07:10:03.719Z,86.60
2022-11-20T07:11:25.328Z,86.40
2022-11-20T07:12:50.685Z,86.40
2022-11-20T07:14:11.022Z,85.90
2022-11-20T07:15:32.812Z,86.10
2022-11-20T07:16:53.270Z,85.60
2022-11-20T07:18:14.160Z,85.30
2022-11-20T07:19:34.544Z,85.50
2022-11-20T07:20:55.090Z,85.20
2022-11-20T07:22:15.864Z,85.30
2022-11-20T07:23:36.921Z,85.10
2022-11-20T07:24:57.338Z,85.20
2022-11-20T07:26:18.231Z,85.50
2022-11-20T07:27:38.749Z,85.30
2022-11-20T07:28:59.251Z,85.50
2022-11-20T07:30:20.174Z,85.00
2022-11-20T07:31:41.808Z,85.10
2022-11-20T07:33:02.552Z,85.30
2022-11-20T07:34:23.434Z,85.90
2022-11-20T07:35:43.919Z,85.90
2022-11-20T07:37:10.074Z,85.90
2022-11-20T07:38:30.954Z,85.00
2022-11-20T07:39:51.467Z,85.70
2022-11-20T07:41:12.188Z,85.50
2022-11-20T07:42:32.872Z,86.50
2022-11-20T07:43:54.640Z,86.40
2022-11-20T07:45:15.206Z,86.20
2022-11-20T07:46:35.968Z,86.10
2022-11-20T07:47:57.870Z,86.00
2022-11-20T07:49:19.723Z,86.10
2022-11-20T07:50:40.382Z,86.70
2022-11-20T07:52:04.676Z,86.20
2022-11-20T07:53:25.985Z,86.30
2022-11-20T07:54:46.116Z,86.50
2022-11-20T07:56:08.189Z,86.60
2022-11-20T07:57:28.702Z,86.30
2022-11-20T07:58:49.291Z,85.50
2022-11-20T08:00:11.693Z,85.80
2022-11-20T08:01:32.605Z,85.50
2022-11-20T08:02:53.252Z,86.40
2022-11-20T08:04:15.218Z,85.90
2022-11-20T08:05:35.720Z,85.40
2022-11-20T08:06:56.110Z,85.70
2022-11-20T08:08:16.681Z,84.50
2022-11-20T08:09:37.127Z,84.70
2022-11-20T08:10:58.016Z,85.00
2022-11-20T08:12:20.247Z,85.30
2022-11-20T08:13:41.111Z,85.20
2022-11-20T08:15:01.640Z,85.20
2022-11-20T08:16:22.270Z,85.10
2022-11-20T08:17:48.914Z,84.80
2022-11-20T08:19:19.276Z,84.80
2022-11-20T08:20:40.091Z,85.10
2022-11-20T08:22:00.773Z,85.20
2022-11-20T08:23:21.413Z,85.00
2022-11-20T08:24:41.998Z,85.10
2022-11-20T08:26:02.514Z,85.20
2022-11-20T08:27:22.969Z,85.20
2022-11-20T08:28:43.325Z,85.00
2022-11-20T08:30:04.922Z,85.00
2022-11-20T08:31:26.844Z,84.70
2022-11-20T08:32:47.400Z,85.30
2022-11-20T08:34:09.842Z,85.20
2022-11-20T08:35:35.428Z,85.10
2022-11-20T08:36:56.217Z,85.10
2022-11-20T08:38:16.892Z,85.10
2022-11-20T08:39:37.373Z,84.60
2022-11-20T08:40:58.489Z,84.90
2022-11-20T08:42:19.095Z,85.00
2022-11-20T08:43:40.267Z,84.70
2022-11-20T08:45:00.769Z,85.20
2022-11-20T08:46:21.688Z,85.80
2022-11-20T08:47:42.311Z,85.70
2022-11-20T08:49:03.012Z,85.00
2022-11-20T08:50:23.947Z,85.10
2022-11-20T08:51:45.978Z,85.10
2022-11-20T08:53:06.458Z,85.80
2022-11-20T08:54:27.463Z,85.50
2022-11-20T08:55:47.772Z,85.80
2022-11-20T08:57:08.603Z,85.50
2022-11-20T08:58:30.943Z,85.70
2022-11-20T09:00:05.694Z,85.50
2022-11-20T09:01:27.211Z,85.70
2022-11-20T09:02:48.019Z,85.80
2022-11-20T09:04:08.383Z,85.30
2022-11-20T09:05:30.200Z,85.90
2022-11-20T09:06:52.278Z,86.00
2022-11-20T09:08:12.992Z,86.00
2022-11-20T09:09:33.437Z,85.60
2022-11-20T09:10:54.241Z,85.40
2022-11-20T09:12:14.909Z,85.80
2022-11-20T09:13:36.637Z,85.80
2022-11-20T09:14:56.992Z,86.00
2022-11-20T09:16:17.286Z,85.70
2022-11-20T09:17:37.793Z,86.20
2022-11-20T09:19:28.159Z,86.30
2022-11-20T09:20:38.757Z,85.90
2022-11-20T09:22:00.490Z,85.90
2022-11-20T09:23:20.969Z,85.40
2022-11-20T09:24:41.718Z,84.70
2022-11-20T09:26:03.891Z,84.80
2022-11-20T09:27:24.338Z,85.00
2022-11-20T09:28:45.041Z,85.20
2022-11-20T09:30:06.834Z,85.20
2022-11-20T09:31:27.140Z,85.10
2022-11-20T09:32:47.827Z,85.30
2022-11-20T09:34:08.436Z,85.60
2022-11-20T09:35:28.894Z,85.10
2022-11-20T09:36:49.041Z,85.20
2022-11-20T09:38:11.223Z,85.40
2022-11-20T09:39:33.018Z,85.60
2022-11-20T09:40:58.030Z,85.50
2022-11-20T09:42:27.638Z,85.40
2022-11-20T09:43:52.882Z,85.30
2022-11-20T09:45:18.615Z,86.00
2022-11-20T09:46:44.650Z,85.40
2022-11-20T09:48:14.580Z,85.10
2022-11-20T09:49:46.939Z,85.20
2022-11-20T09:51:14.288Z,85.20
2022-11-20T09:52:39.141Z,85.50
2022-11-20T09:54:08.611Z,85.50
2022-11-20T09:55:30.386Z,85.50
2022-11-20T09:56:52.693Z,85.50
2022-11-20T09:58:17.300Z,85.20
2022-11-20T09:59:40.329Z,85.30
2022-11-20T10:01:04.879Z,85.50
2022-11-20T10:02:29.769Z,85.40
2022-11-20T10:03:57.188Z,85.20
2022-11-20T10:05:19.961Z,85.40
2022-11-20T10:06:45.152Z,85.30
2022-11-20T10:08:14.899Z,85.60
2022-11-20T10:09:39.030Z,85.00
2022-11-20T10:11:06.006Z,84.80
2022-11-20T10:12:34.721Z,85.20
2022-11-20T10:14:03.443Z,85.10
2022-11-20T10:15:30.644Z,84.90
2022-11-20T10:16:59.934Z,84.80
2022-11-20T10:18:31.849Z,85.10
2022-11-20T10:19:56.028Z,85.30
2022-11-20T10:21:26.735Z,84.90
2022-11-20T10:22:58.066Z,85.00
2022-11-20T10:24:37.690Z,85.50
2022-11-20T10:26:02.737Z,86.00
2022-11-20T10:27:42.543Z,86.30
2022-11-20T10:29:11.153Z,86.80
2022-11-20T10:30:36.023Z,87.20
2022-11-20T10:32:00.747Z,86.70
2022-11-20T10:33:23.892Z,87.20
2022-11-20T10:34:50.188Z,87.40
2022-11-20T10:36:17.011Z,87.80
2022-11-20T10:37:38.962Z,88.40
2022-11-20T10:39:06.400Z,88.30
2022-11-20T10:40:33.432Z,87.40
2022-11-20T10:41:54.035Z,87.80
2022-11-20T10:43:17.547Z,88.40
2022-11-20T10:44:40.732Z,88.10
2022-11-20T10:46:05.643Z,87.80
2022-11-20T10:47:26.792Z,88.10
2022-11-20T10:48:47.584Z,88.60
2022-11-20T10:50:13.810Z,88.70
2022-11-20T10:51:39.646Z,88.70
2022-11-20T10:53:06.281Z,88.90
2022-11-20T10:54:33.451Z,89.10
2022-11-20T10:56:01.470Z,89.60
2022-11-20T10:57:32.601Z,89.30
2022-11-20T10:59:04.555Z,89.40
2022-11-20T11:00:25.262Z,89.80
2022-11-20T11:01:45.686Z,89.90
2022-11-20T11:03:19.041Z,89.80
2022-11-20T11:04:43.589Z,89.90
2022-11-20T11:06:09.064Z,89.90
2022-11-20T11:07:34.939Z,89.90
2022-11-20T11:08:57.789Z,89.10
2022-11-20T11:10:19.997Z,89.10
2022-11-20T11:11:41.866Z,89.10
2022-11-20T11:13:02.499Z,88.90
2022-11-20T11:14:23.133Z,88.80
2022-11-20T11:15:44.194Z,89.10
2022-11-20T11:17:04.740Z,89.90
2022-11-20T11:18:26.847Z,89.90
2022-11-20T11:19:46.824Z,89.80
2022-11-20T11:21:07.348Z,89.60
2022-11-20T11:22:30.023Z,89.80
2022-11-20T11:24:13.477Z,89.80
2022-11-20T11:25:39.695Z,89.70
2022-11-20T11:27:03.099Z,89.80
2022-11-20T11:28:24.176Z,89.70
2022-11-20T11:29:45.223Z,89.80
2022-11-20T11:31:05.985Z,89.90
2022-11-20T11:32:26.315Z,89.80
2022-11-20T11:33:46.644Z,89.30
2022-11-20T11:35:20.303Z,89.60
2022-11-20T11:36:41.577Z,89.30
2022-11-20T11:38:07.193Z,89.30
2022-11-20T11:39:28.603Z,89.20
2022-11-20T11:40:49.033Z,89.80
2022-11-20T11:42:13.572Z,89.60
2022-11-20T11:43:37.939Z,89.60
2022-11-20T11:45:00.556Z,89.40
2022-11-20T11:46:32.811Z,89.70
2022-11-20T11:47:54.492Z,89.90
2022-11-20T11:49:16.423Z,89.90
2022-11-20T11:50:37.433Z,89.80
2022-11-20T11:52:04.754Z,89.90
2022-11-20T11:53:27.509Z,89.70
2022-11-20T11:54:52.530Z,89.30
2022-11-20T11:56:14.975Z,89.60
2022-11-20T11:57:42.657Z,89.90
2022-11-20T11:59:07.080Z,89.90
2022-11-20T12:00:27.984Z,89.80
2022-11-20T12:01:52.066Z,89.60
2022-11-20T12:03:17.086Z,89.80
2022-11-20T12:04:45.626Z,89.70
2022-11-20T12:06:11.454Z,89.50
2022-11-20T12:07:46.427Z,89.40
2022-11-20T12:09:11.087Z,89.70
2022-11-20T12:10:41.687Z,89.60
2022-11-20T12:12:08.966Z,89.40
2022-11-20T12:13:38.521Z,89.50
2022-11-20T12:14:59.773Z,89.90
2022-11-20T12:16:20.578Z,89.70
2022-11-20T12:17:41.374Z,89.90
2022-11-20T12:19:02.049Z,89.80
2022-11-20T12:20:27.244Z,89.70
2022-11-20T12:22:00.035Z,89.90
2022-11-20T12:23:27.448Z,89.80
2022-11-20T12:24:55.052Z,89.70
2022-11-20T12:26:24.211Z,89.40
2022-11-20T12:27:52.888Z,89.40
2022-11-20T12:29:29.128Z,89.60
2022-11-20T12:30:59.645Z,89.30
2022-11-20T12:32:43.841Z,89.20
2022-11-20T12:34:14.478Z,89.10
2022-11-20T12:35:45.784Z,89.00
2022-11-20T12:37:15.217Z,89.40
2022-11-20T12:39:09.255Z,89.10
2022-11-20T12:40:36.703Z,89.40
2022-11-20T12:42:11.191Z,89.10
2022-11-20T12:43:34.495Z,89.20
2022-11-20T12:45:21.308Z,89.40
2022-11-20T12:46:46.045Z,89.70
2022-11-20T12:48:46.272Z,89.30
2022-11-20T12:50:12.283Z,89.10
2022-11-20T12:51:45.525Z,89.10
2022-11-20T12:53:08.766Z,89.60
2022-11-20T12:55:04.252Z,89.40
2022-11-20T12:56:32.541Z,89.50
2022-11-20T12:57:57.674Z,89.10
2022-11-20T12:59:28.862Z,89.10
2022-11-20T13:00:57.418Z,89.10
2022-11-20T13:02:26.759Z,89.30
2022-11-20T13:03:51.985Z,89.30
2022-11-20T13:05:21.091Z,89.40
2022-11-20T13:06:41.669Z,89.30
2022-11-20T13:08:02.800Z,89.20
2022-11-20T13:09:24.214Z,89.50
2022-11-20T13:10:50.744Z,89.80
2022-11-20T13:12:16.432Z,89.50
2022-11-20T13:13:44.374Z,89.40
2022-11-20T13:15:14.826Z,89.60
2022-11-20T13:16:39.597Z,89.80
2022-11-20T13:18:01.989Z,89.80
2022-11-20T13:19:23.048Z,89.90
2022-11-20T13:20:44.951Z,89.90
2022-11-20T13:22:05.276Z,89.90
2022-11-20T13:23:26.978Z,89.90
2022-11-20T13:24:51.803Z,89.90
2022-11-20T13:26:18.629Z,89.90
2022-11-20T13:27:48.130Z,89.90
2022-11-20T13:29:11.933Z,89.90
2022-11-20T13:30:32.948Z,89.90
2022-11-20T13:32:07.731Z,89.90
2022-11-20T13:33:32.586Z,89.90
2022-11-20T13:34:53.520Z,89.90
2022-11-20T13:36:24.373Z,89.90
2022-11-20T13:37:45.156Z,89.90
2022-11-20T13:39:05.589Z,89.90
2022-11-20T13:40:26.497Z,89.90
2022-11-20T13:41:55.644Z,89.90
2022-11-20T13:43:23.479Z,89.90
2022-11-20T13:44:47.754Z,89.90
2022-11-20T13:46:10.205Z,89.90
2022-11-20T13:47:32.207Z,89.90
2022-11-20T13:48:53.585Z,89.90
2022-11-20T13:50:15.502Z,89.90
2022-11-20T13:51:42.093Z,89.90
2022-11-20T13:53:09.113Z,89.90
2022-11-20T13:54:53.647Z,89.90
2022-11-20T13:56:23.095Z,89.90
2022-11-20T13:58:06.801Z,89.90
2022-11-20T13:59:37.172Z,89.90
2022-11-20T14:00:59.469Z,89.90
2022-11-20T14:02:22.056Z,89.90
2022-11-20T14:04:05.028Z,89.90
2022-11-20T14:05:24.716Z,89.90
2022-11-20T14:06:46.560Z,89.90
2022-11-20T14:08:10.378Z,89.90
2022-11-20T14:09:32.948Z,89.90
2022-11-20T14:11:04.141Z,89.90
2022-11-20T14:12:29.714Z,89.90
2022-11-20T14:13:59.294Z,89.90
2022-11-20T14:15:27.294Z,89.90
2022-11-20T14:16:49.492Z,89.90
2022-11-20T14:18:14.766Z,89.90
2022-11-20T14:19:44.909Z,89.90
2022-11-20T14:21:05.796Z,89.90
2022-11-20T14:22:27.338Z,89.90
2022-11-20T14:23:47.823Z,89.90
2022-11-20T14:25:20.397Z,89.90
2022-11-20T14:26:43.387Z,89.90
2022-11-20T14:28:04.812Z,89.90
2022-11-20T14:29:27.950Z,89.90
2022-11-20T14:30:49.255Z,89.90
2022-11-20T14:32:10.186Z,89.90
2022-11-20T14:33:33.594Z,89.90
2022-11-20T14:34:55.632Z,89.90
2022-11-20T14:36:18.592Z,89.90
2022-11-20T14:37:40.231Z,89.90
2022-11-20T14:39:00.581Z,89.90
2022-11-20T14:40:29.475Z,89.90
2022-11-20T14:41:52.355Z,89.90
2022-11-20T14:43:22.326Z,89.90
2022-11-20T14:44:43.451Z,89.90
2022-11-20T14:46:06.321Z,89.90
2022-11-20T14:47:30.712Z,89.90
2022-11-20T14:48:52.986Z,89.90
2022-11-20T14:50:19.146Z,89.90
2022-11-20T14:51:40.907Z,89.90
2022-11-20T14:53:02.111Z,89.90
2022-11-20T14:54:23.445Z,89.90
2022-11-20T14:55:44.323Z,89.90
2022-11-20T14:57:05.281Z,89.90
2022-11-20T14:58:27.400Z,89.90
2022-11-20T14:59:50.495Z,89.90
2022-11-20T15:01:47.083Z,89.90
2022-11-20T15:03:47.232Z,89.90
2022-11-20T15:05:24.704Z,89.90
2022-11-20T15:07:31.022Z,89.90
2022-11-20T15:08:55.226Z,89.90
2022-11-20T15:10:22.558Z,89.90
2022-11-20T15:11:54.172Z,89.90
2022-11-20T15:13:17.437Z,89.90
2022-11-20T15:14:38.149Z,89.90
2022-11-20T15:15:59.467Z,89.90
2022-11-20T15:17:20.119Z,89.90
2022-11-20T15:18:41.785Z,89.90
2022-11-20T15:20:02.349Z,89.90
2022-11-20T15:21:24.173Z,89.90
2022-11-20T15:22:44.522Z,89.90
2022-11-20T15:24:09.608Z,89.90
2022-11-20T15:25:30.312Z,89.90
2022-11-20T15:26:50.881Z,89.90
2022-11-20T15:28:17.581Z,89.90
2022-11-20T15:29:38.192Z,89.90
2022-11-20T15:30:58.753Z,89.90
2022-11-20T15:32:19.312Z,89.90
2022-11-20T15:33:40.649Z,89.90
2022-11-20T15:35:01.045Z,89.90
2022-11-20T15:36:21.254Z,89.90
2022-11-20T15:37:43.536Z,89.90
2022-11-20T15:39:04.160Z,89.90
2022-11-20T15:40:24.786Z,89.90
2022-11-20T15:41:45.113Z,89.90
2022-11-20T15:43:11.358Z,89.90
2022-11-20T15:44:33.740Z,89.90
2022-11-20T15:46:00.038Z,89.90
2022-11-20T15:47:21.904Z,89.90
2022-11-20T15:48:47.659Z,89.90
2022-11-20T15:50:11.934Z,89.90
2022-11-20T15:51:34.777Z,89.90
2022-11-20T15:52:56.873Z,89.90
2022-11-20T15:54:19.066Z,89.90
2022-11-20T15:55:39.520Z,89.90
2022-11-20T15:57:00.239Z,89.90
2022-11-20T15:58:20.940Z,89.90
2022-11-20T15:59:41.587Z,89.90
2022-11-20T16:01:02.050Z,89.90
2022-11-20T16:02:22.526Z,89.90
2022-11-20T16:03:43.132Z,89.90
2022-11-20T16:05:04.551Z,89.90
2022-11-20T16:06:24.959Z,89.90
2022-11-20T16:07:45.557Z,89.90
2022-11-20T16:09:07.799Z,89.90
2022-11-20T16:10:28.579Z,89.90
2022-11-20T16:11:48.965Z,89.90
2022-11-20T16:13:14.320Z,89.90
2022-11-20T16:14:34.951Z,89.90
2022-11-20T16:15:58.940Z,89.90
2022-11-20T16:17:19.588Z,89.90
2022-11-20T16:18:40.252Z,89.90
2022-11-20T16:20:00.775Z,89.90
2022-11-20T16:21:21.572Z,89.90
2022-11-20T16:22:42.055Z,89.90
2022-11-20T16:24:04.942Z,89.90
2022-11-20T16:25:28.024Z,89.90
2022-11-20T16:26:48.433Z,89.90
2022-11-20T16:28:09.814Z,89.90
2022-11-20T16:29:31.774Z,89.90
2022-11-20T16:30:52.315Z,89.90
2022-11-20T16:32:12.957Z,89.90
2022-11-20T16:33:33.209Z,89.90
2022-11-20T16:34:53.660Z,89.90
2022-11-20T16:36:15.459Z,89.90
2022-11-20T16:37:36.076Z,89.90
2022-11-20T16:38:57.892Z,89.90
2022-11-20T16:40:18.572Z,89.90
2022-11-20T16:41:40.541Z,89.90
2022-11-20T16:43:08.999Z,89.90
2022-11-20T16:44:30.077Z,89.90
2022-11-20T16:45:50.277Z,89.90
2022-11-20T16:47:10.746Z,89.90
2022-11-20T16:48:31.255Z,89.90
2022-11-20T16:49:52.136Z,89.90
2022-11-20T16:51:13.222Z,89.90
2022-11-20T16:52:33.812Z,89.90
2022-11-20T16:53:55.964Z,89.90
2022-11-20T16:55:16.754Z,89.90
2022-11-20T16:56:37.590Z,89.90
2022-11-20T16:57:59.267Z,89.90
2022-11-20T16:59:19.889Z,89.90
2022-11-20T17:00:40.940Z,89.90
2022-11-20T17:02:01.582Z,89.90
2022-11-20T17:03:22.260Z,89.90
2022-11-20T17:04:43.259Z,89.90
2022-11-20T17:06:11.691Z,89.90
2022-11-20T17:07:31.963Z,89.90
2022-11-20T17:08:54.379Z,89.90
2022-11-20T17:10:14.727Z,89.90
2022-11-20T17:11:35.548Z,89.90
2022-11-20T17:12:56.376Z,89.90
2022-11-20T17:14:18.391Z,89.90
2022-11-20T17:15:39.137Z,89.90
2022-11-20T17:16:59.826Z,89.90
2022-11-20T17:18:20.450Z,89.90
2022-11-20T17:19:40.655Z,89.90
2022-11-20T17:21:01.600Z,89.90
2022-11-20T17:22:22.140Z,89.90
2022-11-20T17:23:44.252Z,89.90
2022-11-20T17:25:05.708Z,89.90
2022-11-20T17:26:26.073Z,89.90
2022-11-20T17:27:46.797Z,89.90
2022-11-20T17:29:09.803Z,89.90
2022-11-20T17:30:31.914Z,89.90
2022-11-20T17:31:54.080Z,89.90
2022-11-20T17:33:14.787Z,89.90
2022-11-20T17:34:35.543Z,89.90
2022-11-20T17:35:56.473Z,89.90
2022-11-20T17:37:16.928Z,89.90
2022-11-20T17:38:37.721Z,89.90
2022-11-20T17:39:59.480Z,89.90
2022-11-20T17:41:20.933Z,89.90
2022-11-20T17:42:41.358Z,89.90
2022-11-20T17:44:01.913Z,89.90
2022-11-20T17:45:22.375Z,89.90
2022-11-20T17:46:44.298Z,89.90
2022-11-20T17:48:05.642Z,89.90
2022-11-20T17:49:26.504Z,89.90
2022-11-20T17:50:47.117Z,89.90
2022-11-20T17:52:07.346Z,89.90
2022-11-20T17:53:28.196Z,89.90